BAW520 EGLL-LOWW
Flight info
| Callsign | BAW520 |
|---|---|
| Flight time | N/A |
| Altitude | 37000 |
| Route | DET L6 DVR UL9 KONAN DCT KOK UL607 FERDI DCT MATUG DCT GUBAX DCT BARSU DCT EKSOS DCT LULAR DCT RUDAP DCT BUDEX BUDEX2W |
| Aircraft | B77W/H-SDE1E2E3FGHIJ2J3J4J5M1RWXY/LB1D1 |
Departure
| Time | N/A |
|---|---|
| Airport | London Heathrow Airport (EGLL) |
Arrival
| Time | 2026-05-06 19:39 |
|---|---|
| Airport | Vienna International Airport (LOWW) |
| Time | Latitude | Longitude | Altitude | Speed | Heading |
|---|---|---|---|---|---|
| 2026-05-06 19:04 | 49.36112 | 12.78067 | 36764 ft | 488 kts | 114° |
| 2026-05-06 19:05 | 49.33748 | 12.87787 | 36757 ft | 486 kts | 116° |
| 2026-05-06 19:05 | 49.31321 | 12.97477 | 36752 ft | 486 kts | 116° |
| 2026-05-06 19:06 | 49.28917 | 13.07173 | 36748 ft | 486 kts | 115° |
| 2026-05-06 19:06 | 49.26523 | 13.16851 | 36746 ft | 486 kts | 116° |
| 2026-05-06 19:07 | 49.24119 | 13.26526 | 36762 ft | 486 kts | 116° |
| 2026-05-06 19:07 | 49.21617 | 13.36053 | 36743 ft | 485 kts | 117° |
| 2026-05-06 19:07 | 49.20325 | 13.40804 | 36612 ft | 482 kts | 118° |
| 2026-05-06 19:08 | 49.19034 | 13.45529 | 36267 ft | 483 kts | 118° |
| 2026-05-06 19:08 | 49.17734 | 13.50285 | 35829 ft | 485 kts | 118° |
| 2026-05-06 19:08 | 49.16434 | 13.55053 | 35460 ft | 486 kts | 118° |
| 2026-05-06 19:08 | 49.15044 | 13.59735 | 35193 ft | 480 kts | 124° |
| 2026-05-06 19:09 | 49.13416 | 13.64156 | 34994 ft | 475 kts | 126° |
| 2026-05-06 19:09 | 49.11754 | 13.68484 | 34815 ft | 471 kts | 127° |
| 2026-05-06 19:09 | 49.10083 | 13.72788 | 34584 ft | 470 kts | 127° |
| 2026-05-06 19:09 | 49.08418 | 13.77079 | 34357 ft | 468 kts | 127° |
| 2026-05-06 19:10 | 49.06791 | 13.81298 | 34132 ft | 467 kts | 127° |
| 2026-05-06 19:10 | 49.05149 | 13.85572 | 33926 ft | 465 kts | 127° |
| 2026-05-06 19:10 | 49.03524 | 13.89816 | 33731 ft | 463 kts | 127° |
| 2026-05-06 19:10 | 49.01904 | 13.94051 | 33489 ft | 461 kts | 127° |
| 2026-05-06 19:11 | 49.00289 | 13.98269 | 33220 ft | 460 kts | 128° |
| 2026-05-06 19:11 | 48.98678 | 14.02470 | 32933 ft | 459 kts | 128° |
| 2026-05-06 19:11 | 48.97067 | 14.06664 | 32676 ft | 457 kts | 128° |
| 2026-05-06 19:11 | 48.95465 | 14.10829 | 32480 ft | 455 kts | 128° |
| 2026-05-06 19:12 | 48.93867 | 14.14975 | 32167 ft | 453 kts | 128° |
| 2026-05-06 19:12 | 48.92278 | 14.19094 | 31652 ft | 450 kts | 128° |
| 2026-05-06 19:12 | 48.90703 | 14.23170 | 31175 ft | 445 kts | 128° |
| 2026-05-06 19:12 | 48.89139 | 14.27212 | 30707 ft | 441 kts | 128° |
| 2026-05-06 19:13 | 48.87587 | 14.31213 | 30232 ft | 437 kts | 128° |
| 2026-05-06 19:13 | 48.86048 | 14.35174 | 29779 ft | 434 kts | 128° |
| 2026-05-06 19:13 | 48.84518 | 14.39106 | 29242 ft | 431 kts | 128° |
| 2026-05-06 19:13 | 48.82998 | 14.43008 | 28752 ft | 428 kts | 128° |
| 2026-05-06 19:14 | 48.81487 | 14.46882 | 28284 ft | 424 kts | 128° |
| 2026-05-06 19:14 | 48.79991 | 14.50711 | 27817 ft | 421 kts | 128° |
| 2026-05-06 19:14 | 48.78519 | 14.54471 | 27349 ft | 418 kts | 128° |
| 2026-05-06 19:14 | 48.77039 | 14.58248 | 26891 ft | 415 kts | 128° |
| 2026-05-06 19:15 | 48.75571 | 14.61989 | 26392 ft | 412 kts | 128° |
| 2026-05-06 19:15 | 48.74108 | 14.65711 | 25969 ft | 409 kts | 128° |
| 2026-05-06 19:15 | 48.72655 | 14.69400 | 25533 ft | 406 kts | 128° |
| 2026-05-06 19:15 | 48.71205 | 14.73077 | 25075 ft | 404 kts | 127° |
| 2026-05-06 19:16 | 48.69763 | 14.76730 | 24619 ft | 403 kts | 127° |
| 2026-05-06 19:16 | 48.68330 | 14.80358 | 24177 ft | 400 kts | 127° |
| 2026-05-06 19:16 | 48.66904 | 14.83962 | 23748 ft | 398 kts | 127° |
| 2026-05-06 19:16 | 48.65483 | 14.87547 | 23300 ft | 396 kts | 127° |
| 2026-05-06 19:17 | 48.64067 | 14.91117 | 22783 ft | 395 kts | 127° |
| 2026-05-06 19:17 | 48.62678 | 14.94617 | 22317 ft | 392 kts | 127° |
| 2026-05-06 19:17 | 48.61275 | 14.98146 | 21870 ft | 389 kts | 127° |
| 2026-05-06 19:17 | 48.59882 | 15.01644 | 21427 ft | 387 kts | 127° |
| 2026-05-06 19:18 | 48.58602 | 15.05225 | 20975 ft | 389 kts | 117° |
| 2026-05-06 19:18 | 48.57827 | 15.09154 | 20570 ft | 391 kts | 109° |
| 2026-05-06 19:18 | 48.57201 | 15.13137 | 20154 ft | 389 kts | 108° |
| 2026-05-06 19:18 | 48.56586 | 15.17108 | 19722 ft | 388 kts | 109° |
| 2026-05-06 19:19 | 48.55953 | 15.21056 | 19296 ft | 386 kts | 109° |
| 2026-05-06 19:19 | 48.55298 | 15.24980 | 18863 ft | 385 kts | 109° |
| 2026-05-06 19:19 | 48.54630 | 15.28883 | 18447 ft | 384 kts | 110° |
| 2026-05-06 19:19 | 48.53954 | 15.32781 | 17993 ft | 383 kts | 109° |
| 2026-05-06 19:20 | 48.53278 | 15.36667 | 17515 ft | 383 kts | 109° |
| 2026-05-06 19:20 | 48.52602 | 15.40538 | 17053 ft | 381 kts | 109° |
| 2026-05-06 19:20 | 48.51946 | 15.44401 | 16709 ft | 376 kts | 106° |
| 2026-05-06 19:20 | 48.51589 | 15.48283 | 16400 ft | 373 kts | 98° |
| 2026-05-06 19:21 | 48.51432 | 15.52164 | 16111 ft | 367 kts | 96° |
| 2026-05-06 19:21 | 48.51346 | 15.54691 | 15922 ft | 363 kts | 96° |
| 2026-05-06 19:21 | 48.51126 | 15.59692 | 15584 ft | 357 kts | 98° |
| 2026-05-06 19:21 | 48.50991 | 15.62207 | 15401 ft | 355 kts | 98° |
| 2026-05-06 19:22 | 48.50711 | 15.67114 | 15058 ft | 355 kts | 98° |
| 2026-05-06 19:22 | 48.50564 | 15.69625 | 14898 ft | 356 kts | 98° |
| 2026-05-06 19:22 | 48.50345 | 15.73353 | 14636 ft | 357 kts | 98° |
| 2026-05-06 19:22 | 48.50125 | 15.77076 | 14380 ft | 356 kts | 98° |
| 2026-05-06 19:23 | 48.49904 | 15.80791 | 14111 ft | 355 kts | 98° |
| 2026-05-06 19:23 | 48.49686 | 15.84483 | 13855 ft | 353 kts | 98° |
| 2026-05-06 19:23 | 48.49468 | 15.88161 | 13602 ft | 351 kts | 98° |
| 2026-05-06 19:23 | 48.49252 | 15.91779 | 13325 ft | 350 kts | 98° |
| 2026-05-06 19:24 | 48.49034 | 15.95415 | 13044 ft | 347 kts | 98° |
| 2026-05-06 19:24 | 48.48814 | 15.99068 | 12789 ft | 344 kts | 98° |
| 2026-05-06 19:24 | 48.48595 | 16.02656 | 12529 ft | 343 kts | 98° |
| 2026-05-06 19:24 | 48.48303 | 16.06133 | 12268 ft | 333 kts | 108° |
| 2026-05-06 19:25 | 48.47303 | 16.09180 | 12041 ft | 322 kts | 132° |
| 2026-05-06 19:25 | 48.45683 | 16.11469 | 11845 ft | 318 kts | 149° |
| 2026-05-06 19:25 | 48.43731 | 16.12992 | 11764 ft | 316 kts | 160° |
| 2026-05-06 19:25 | 48.41699 | 16.14280 | 11734 ft | 317 kts | 160° |
| 2026-05-06 19:26 | 48.39655 | 16.15566 | 11452 ft | 324 kts | 160° |
| 2026-05-06 19:26 | 48.37559 | 16.16917 | 10929 ft | 328 kts | 159° |
| 2026-05-06 19:26 | 48.35482 | 16.18279 | 10643 ft | 322 kts | 159° |
| 2026-05-06 19:26 | 48.33504 | 16.19602 | 10379 ft | 300 kts | 155° |
| 2026-05-06 19:27 | 48.31930 | 16.21473 | 10165 ft | 283 kts | 131° |
| 2026-05-06 19:27 | 48.31014 | 16.24067 | 9967 ft | 285 kts | 110° |
| 2026-05-06 19:27 | 48.30615 | 16.26996 | 9844 ft | 288 kts | 97° |
| 2026-05-06 19:27 | 48.30839 | 16.29976 | 9788 ft | 286 kts | 75° |
| 2026-05-06 19:28 | 48.31762 | 16.32570 | 9381 ft | 282 kts | 46° |
| 2026-05-06 19:28 | 48.33374 | 16.34192 | 9119 ft | 278 kts | 18° |
| 2026-05-06 19:28 | 48.35228 | 16.34761 | 8879 ft | 271 kts | 359° |
| 2026-05-06 19:28 | 48.37052 | 16.34330 | 8548 ft | 263 kts | 340° |
| 2026-05-06 19:29 | 48.38795 | 16.33553 | 8309 ft | 260 kts | 340° |
| 2026-05-06 19:29 | 48.40521 | 16.32787 | 8053 ft | 258 kts | 340° |
| 2026-05-06 19:29 | 48.42237 | 16.32032 | 7746 ft | 256 kts | 341° |
| 2026-05-06 19:29 | 48.44007 | 16.31808 | 7327 ft | 262 kts | 9° |
| 2026-05-06 19:30 | 48.45659 | 16.32926 | 7057 ft | 263 kts | 40° |
| 2026-05-06 19:30 | 48.46756 | 16.35089 | 6731 ft | 262 kts | 70° |
| 2026-05-06 19:30 | 48.47019 | 16.37749 | 6469 ft | 253 kts | 101° |
| 2026-05-06 19:30 | 48.46443 | 16.40147 | 6324 ft | 235 kts | 123° |
| 2026-05-06 19:31 | 48.45643 | 16.42178 | 6295 ft | 218 kts | 131° |
| 2026-05-06 19:31 | 48.44555 | 16.43566 | 5971 ft | 202 kts | 160° |
| 2026-05-06 19:31 | 48.41975 | 16.44979 | 5274 ft | 194 kts | 167° |
| 2026-05-06 19:32 | 48.40692 | 16.45563 | 5012 ft | 189 kts | 169° |
| 2026-05-06 19:32 | 48.39441 | 16.46116 | 5016 ft | 186 kts | 168° |
| 2026-05-06 19:32 | 48.38203 | 16.46652 | 5007 ft | 187 kts | 169° |
| 2026-05-06 19:32 | 48.36924 | 16.47198 | 5012 ft | 191 kts | 169° |
| 2026-05-06 19:33 | 48.35659 | 16.47741 | 5002 ft | 190 kts | 169° |
| 2026-05-06 19:33 | 48.34389 | 16.48283 | 5001 ft | 189 kts | 169° |
| 2026-05-06 19:33 | 48.33123 | 16.48822 | 4873 ft | 191 kts | 169° |
| 2026-05-06 19:33 | 48.31839 | 16.49370 | 4625 ft | 190 kts | 169° |
| 2026-05-06 19:34 | 48.30575 | 16.49911 | 4363 ft | 187 kts | 169° |
| 2026-05-06 19:34 | 48.29337 | 16.50439 | 4144 ft | 183 kts | 169° |
| 2026-05-06 19:34 | 48.28126 | 16.50955 | 3893 ft | 178 kts | 169° |
| 2026-05-06 19:34 | 48.26946 | 16.51461 | 3667 ft | 174 kts | 169° |
| 2026-05-06 19:35 | 48.25780 | 16.51957 | 3452 ft | 175 kts | 170° |
| 2026-05-06 19:35 | 48.24601 | 16.52456 | 3212 ft | 176 kts | 170° |
| 2026-05-06 19:35 | 48.23454 | 16.52945 | 2998 ft | 170 kts | 170° |
| 2026-05-06 19:35 | 48.22346 | 16.53418 | 2769 ft | 161 kts | 170° |
| 2026-05-06 19:36 | 48.21310 | 16.53860 | 2544 ft | 149 kts | 170° |
| 2026-05-06 19:36 | 48.20347 | 16.54268 | 2395 ft | 141 kts | 169° |
| 2026-05-06 19:36 | 48.19436 | 16.54661 | 2180 ft | 129 kts | 169° |
| 2026-05-06 19:36 | 48.18630 | 16.55004 | 2035 ft | 115 kts | 169° |
| 2026-05-06 19:37 | 48.17828 | 16.55339 | 1871 ft | 121 kts | 168° |
| 2026-05-06 19:37 | 48.17030 | 16.55678 | 1730 ft | 119 kts | 167° |
| 2026-05-06 19:37 | 48.16221 | 16.56019 | 1563 ft | 123 kts | 167° |
| 2026-05-06 19:37 | 48.15386 | 16.56371 | 1390 ft | 126 kts | 165° |
| 2026-05-06 19:38 | 48.14572 | 16.56720 | 1209 ft | 119 kts | 163° |
| 2026-05-06 19:38 | 48.13761 | 16.57062 | 1074 ft | 124 kts | 161° |
| 2026-05-06 19:38 | 48.12907 | 16.57422 | 889 ft | 129 kts | 161° |
| 2026-05-06 19:38 | 48.12064 | 16.57783 | 682 ft | 125 kts | 162° |
| 2026-05-06 19:39 | 48.11261 | 16.58132 | 627 ft | 109 kts | 165° |
| 2026-05-06 19:39 | 48.10674 | 16.58373 | 622 ft | 61 kts | 165° |
| 2026-05-06 19:39 | 48.10412 | 16.58465 | 617 ft | 29 kts | 175° |
| 2026-05-06 19:39 | 48.10210 | 16.58430 | 625 ft | 29 kts | 194° |
| 2026-05-06 19:40 | 48.10107 | 16.58299 | 626 ft | 12 kts | 238° |
| 2026-05-06 19:40 | 48.10118 | 16.58192 | 629 ft | 12 kts | 331° |
| 2026-05-06 19:40 | 48.10201 | 16.58150 | 626 ft | 13 kts | 345° |
| 2026-05-06 19:40 | 48.10208 | 16.58147 | 627 ft | 0 kts | 344° |
| 2026-05-06 19:41 | 48.10211 | 16.58146 | 627 ft | 1 kts | 344° |
| 2026-05-06 19:41 | 48.10219 | 16.58143 | 624 ft | 2 kts | 344° |
| 2026-05-06 19:42 | 48.10228 | 16.58139 | 621 ft | 0 kts | 344° |
| 2026-05-06 19:42 | 48.10234 | 16.58136 | 623 ft | 1 kts | 344° |
| 2026-05-06 19:42 | 48.10246 | 16.58132 | 625 ft | 2 kts | 344° |
| 2026-05-06 19:43 | 48.10260 | 16.58126 | 616 ft | 0 kts | 344° |
| 2026-05-06 19:45 | 48.10267 | 16.58123 | 627 ft | 2 kts | 344° |
| 2026-05-06 19:45 | 48.10283 | 16.58116 | 626 ft | 4 kts | 344° |
| 2026-05-06 19:46 | 48.10312 | 16.58104 | 626 ft | 5 kts | 344° |
| 2026-05-06 19:46 | 48.10347 | 16.58089 | 626 ft | 5 kts | 344° |
| 2026-05-06 19:46 | 48.10385 | 16.58073 | 626 ft | 6 kts | 344° |
| 2026-05-06 19:46 | 48.10429 | 16.58055 | 626 ft | 7 kts | 344° |
| 2026-05-06 19:47 | 48.10477 | 16.58035 | 624 ft | 8 kts | 344° |
| 2026-05-06 19:47 | 48.10537 | 16.58009 | 625 ft | 13 kts | 344° |
| 2026-05-06 19:47 | 48.10631 | 16.57969 | 626 ft | 14 kts | 344° |
| 2026-05-06 19:47 | 48.10727 | 16.57927 | 627 ft | 14 kts | 344° |
| 2026-05-06 19:48 | 48.10824 | 16.57886 | 624 ft | 14 kts | 344° |
| 2026-05-06 19:48 | 48.10919 | 16.57846 | 626 ft | 14 kts | 344° |
| 2026-05-06 19:48 | 48.11014 | 16.57800 | 629 ft | 14 kts | 331° |
| 2026-05-06 19:48 | 48.11079 | 16.57674 | 627 ft | 16 kts | 296° |
| 2026-05-06 19:49 | 48.11128 | 16.57524 | 626 ft | 16 kts | 296° |
| 2026-05-06 19:49 | 48.11176 | 16.57374 | 625 ft | 16 kts | 296° |
| 2026-05-06 19:49 | 48.11225 | 16.57223 | 618 ft | 16 kts | 296° |
| 2026-05-06 19:49 | 48.11275 | 16.57073 | 618 ft | 16 kts | 296° |
| 2026-05-06 19:50 | 48.11324 | 16.56923 | 625 ft | 16 kts | 296° |
| 2026-05-06 19:50 | 48.11373 | 16.56773 | 629 ft | 16 kts | 295° |
| 2026-05-06 19:50 | 48.11421 | 16.56624 | 627 ft | 16 kts | 295° |
| 2026-05-06 19:50 | 48.11470 | 16.56473 | 626 ft | 16 kts | 296° |
| 2026-05-06 19:51 | 48.11519 | 16.56324 | 626 ft | 16 kts | 296° |
| 2026-05-06 19:51 | 48.11568 | 16.56174 | 621 ft | 16 kts | 296° |
| 2026-05-06 19:51 | 48.11617 | 16.56025 | 626 ft | 16 kts | 295° |
| 2026-05-06 19:51 | 48.11665 | 16.55875 | 625 ft | 16 kts | 296° |
| 2026-05-06 19:52 | 48.11725 | 16.55797 | 627 ft | 12 kts | 3° |
| 2026-05-06 19:52 | 48.11806 | 16.55837 | 623 ft | 12 kts | 25° |
| 2026-05-06 19:52 | 48.11880 | 16.55894 | 629 ft | 9 kts | 40° |
| 2026-05-06 19:52 | 48.11876 | 16.55951 | 614 ft | 5 kts | 140° |
| 2026-05-06 19:53 | 48.11863 | 16.55976 | 627 ft | 1 kts | 124° |
| 2026-05-06 19:53 | 48.11858 | 16.55988 | 620 ft | 0 kts | 125° |